createdAt,value
2023-05-27T00:01:48.880Z,3.20
2023-05-27T00:06:54.188Z,6.87
2023-05-27T00:11:59.407Z,11.13
2023-05-27T00:17:04.950Z,9.70
2023-05-27T00:22:10.446Z,5.57
2023-05-27T00:27:16.181Z,5.87
2023-05-27T00:32:21.433Z,7.60
2023-05-27T00:37:27.102Z,10.83
2023-05-27T00:42:32.335Z,11.00
2023-05-27T00:47:37.565Z,9.67
2023-05-27T00:52:43.197Z,7.03
2023-05-27T00:57:48.456Z,8.20
2023-05-27T01:02:53.879Z,5.87
2023-05-27T01:08:27.733Z,14.87
2023-05-27T01:13:47.193Z,9.83
2023-05-27T01:18:55.473Z,12.20
2023-05-27T01:24:05.868Z,7.13
2023-05-27T01:29:11.277Z,12.00
2023-05-27T01:34:19.550Z,10.60
2023-05-27T01:39:26.572Z,8.77
2023-05-27T01:44:33.341Z,6.50
2023-05-27T01:49:38.608Z,6.83
2023-05-27T01:54:43.981Z,4.37
2023-05-27T01:59:49.223Z,6.73
2023-05-27T02:04:54.452Z,3.87
2023-05-27T02:09:59.669Z,15.57
2023-05-27T02:15:05.223Z,5.00
2023-05-27T02:20:11.160Z,4.63
2023-05-27T02:25:16.697Z,3.43
2023-05-27T02:30:22.249Z,8.80
2023-05-27T02:35:27.579Z,3.73
2023-05-27T02:40:33.710Z,16.63
2023-05-27T02:45:38.992Z,5.87
2023-05-27T02:50:44.257Z,8.27
2023-05-27T02:55:49.824Z,7.70
2023-05-27T03:00:56.013Z,5.77
2023-05-27T03:06:01.610Z,8.67
2023-05-27T03:11:06.920Z,1.70
2023-05-27T03:16:12.429Z,5.70
2023-05-27T03:21:17.805Z,4.23
2023-05-27T03:26:23.210Z,10.30
2023-05-27T03:31:28.823Z,18.60
2023-05-27T03:36:35.827Z,3.17
2023-05-27T03:41:42.508Z,5.53
2023-05-27T03:46:48.111Z,7.27
2023-05-27T03:51:54.508Z,5.40
2023-05-27T03:56:59.810Z,7.10
2023-05-27T04:02:05.824Z,7.67
2023-05-27T04:07:10.984Z,17.23
2023-05-27T04:12:16.160Z,13.23
2023-05-27T04:17:21.319Z,6.80
2023-05-27T04:22:26.788Z,3.23
2023-05-27T04:27:32.089Z,7.60
2023-05-27T04:32:41.715Z,12.40
2023-05-27T04:37:48.655Z,21.07
2023-05-27T04:42:54.230Z,11.00
2023-05-27T04:47:59.761Z,5.40
2023-05-27T04:53:07.438Z,11.50
2023-05-27T04:58:11.885Z,9.73
2023-05-27T05:03:23.848Z,8.03
2023-05-27T05:08:29.324Z,9.60
2023-05-27T05:13:34.464Z,21.03
2023-05-27T05:18:39.746Z,12.90
2023-05-27T05:23:44.961Z,22.20
2023-05-27T05:28:50.101Z,10.27
2023-05-27T05:33:56.739Z,15.17
2023-05-27T05:39:02.026Z,11.87
2023-05-27T05:44:07.597Z,10.93
2023-05-27T05:49:12.852Z,5.13
2023-05-27T05:54:24.160Z,5.67
2023-05-27T05:59:29.414Z,6.57
2023-05-27T06:04:36.083Z,7.07
2023-05-27T06:09:41.389Z,10.70
2023-05-27T06:14:48.446Z,8.90
2023-05-27T06:19:53.839Z,7.93
2023-05-27T06:24:59.026Z,4.40
2023-05-27T06:30:04.402Z,3.50
2023-05-27T06:35:09.848Z,3.30
2023-05-27T06:40:16.123Z,4.97
2023-05-27T06:45:22.021Z,2.43
2023-05-27T06:50:36.104Z,5.10
2023-05-27T06:55:41.234Z,1.77
2023-05-27T07:00:47.960Z,7.00
2023-05-27T07:05:53.403Z,3.50
2023-05-27T07:10:58.891Z,1.90
2023-05-27T07:16:04.087Z,2.93
2023-05-27T07:21:09.498Z,1.13
2023-05-27T07:26:15.104Z,0.90
2023-05-27T07:31:22.727Z,1.00
2023-05-27T07:36:28.275Z,2.43
2023-05-27T07:41:34.579Z,6.03
2023-05-27T07:46:40.296Z,0.90
2023-05-27T07:51:45.811Z,1.10
2023-05-27T07:56:50.986Z,1.73
2023-05-27T08:01:57.341Z,4.17
2023-05-27T08:07:02.775Z,0.87
2023-05-27T08:12:08.385Z,1.13
2023-05-27T08:17:13.730Z,0.73
2023-05-27T08:22:18.972Z,3.70
2023-05-27T08:27:27.483Z,2.27
2023-05-27T08:32:32.675Z,2.25
2023-05-27T08:37:39.725Z,3.17
2023-05-27T08:42:50.034Z,2.50
2023-05-27T08:47:56.587Z,2.87
2023-05-27T08:53:02.834Z,1.70
2023-05-27T08:58:08.782Z,0.67
2023-05-27T09:03:14.706Z,0.72
2023-05-27T09:08:19.965Z,2.40
2023-05-27T09:13:30.710Z,0.88
2023-05-27T09:18:38.077Z,3.02
2023-05-27T09:23:46.561Z,1.22
2023-05-27T09:28:52.124Z,4.83
2023-05-27T09:34:05.922Z,0.90
2023-05-27T09:39:12.235Z,1.07
2023-05-27T09:44:18.140Z,0.60
2023-05-27T09:49:24.303Z,2.00
2023-05-27T09:54:30.056Z,2.27
2023-05-27T09:59:35.405Z,6.87
2023-05-27T10:04:41.339Z,1.15
2023-05-27T10:09:47.402Z,1.12
2023-05-27T10:14:52.870Z,1.77
2023-05-27T10:20:01.089Z,1.37
2023-05-27T10:25:15.934Z,2.47
2023-05-27T10:30:22.980Z,0.53
2023-05-27T10:35:34.130Z,2.40
2023-05-27T10:40:39.381Z,1.98
2023-05-27T10:45:46.696Z,1.80
2023-05-27T10:50:55.722Z,3.40
2023-05-27T10:56:02.058Z,1.47
2023-05-27T11:01:15.248Z,5.20
2023-05-27T11:06:20.672Z,3.45
2023-05-27T11:11:26.608Z,1.02
2023-05-27T11:16:31.936Z,1.12
2023-05-27T11:21:37.260Z,5.12
2023-05-27T11:26:46.713Z,3.83
2023-05-27T11:31:52.033Z,1.57
2023-05-27T11:36:57.361Z,2.77
2023-05-27T11:42:04.821Z,0.93
2023-05-27T11:57:33.545Z,1.45
2023-05-27T12:02:38.849Z,1.20
2023-05-27T12:07:47.025Z,1.98
2023-05-27T12:12:52.599Z,1.67
2023-05-27T12:17:57.905Z,0.53
2023-05-27T12:23:03.220Z,0.70
2023-05-27T12:28:10.629Z,1.37
2023-05-27T12:33:16.059Z,0.45
2023-05-27T12:38:21.397Z,0.35
2023-05-27T12:43:30.605Z,0.98
2023-05-27T12:48:36.162Z,1.40
2023-05-27T12:53:41.510Z,4.53
2023-05-27T12:58:47.223Z,1.17
2023-05-27T13:03:57.433Z,1.15
2023-05-27T13:09:07.288Z,2.22
2023-05-27T13:14:16.794Z,0.60
2023-05-27T13:19:22.317Z,1.22
2023-05-27T13:24:27.537Z,0.53
2023-05-27T13:29:32.731Z,1.20
2023-05-27T13:34:38.011Z,1.12
2023-05-27T13:39:47.154Z,1.25
2023-05-27T13:44:52.710Z,1.98
2023-05-27T13:49:58.539Z,2.15
2023-05-27T13:55:05.129Z,17.57
2023-05-27T14:00:11.921Z,0.55
2023-05-27T14:05:17.178Z,1.20
2023-05-27T14:10:22.552Z,2.30
2023-05-27T14:15:29.571Z,1.12
2023-05-27T14:20:37.044Z,1.30
2023-05-27T14:25:42.526Z,1.62
2023-05-27T14:30:47.833Z,1.55
2023-05-27T14:35:53.182Z,3.70
2023-05-27T14:40:58.483Z,7.03
2023-05-27T14:46:03.870Z,1.17
2023-05-27T14:51:09.121Z,3.92
2023-05-27T14:56:15.764Z,1.02
2023-05-27T15:01:21.396Z,2.27
2023-05-27T15:06:26.704Z,0.90
2023-05-27T15:11:32.067Z,3.60
2023-05-27T15:16:37.893Z,1.33
2023-05-27T15:21:43.249Z,1.80
2023-05-27T15:26:48.595Z,0.55
2023-05-27T15:31:53.765Z,0.90
2023-05-27T15:36:59.922Z,1.95
2023-05-27T15:42:06.316Z,0.50
2023-05-27T15:47:11.790Z,0.85
2023-05-27T15:52:17.539Z,2.42
2023-05-27T15:57:23.173Z,1.30
2023-05-27T16:02:30.123Z,0.57
2023-05-27T16:07:35.490Z,2.40
2023-05-27T16:12:40.908Z,1.70
2023-05-27T16:17:46.314Z,1.98
2023-05-27T16:22:51.752Z,1.87
2023-05-27T16:27:56.954Z,1.13
2023-05-27T16:33:02.315Z,3.13
2023-05-27T16:38:08.082Z,1.37
2023-05-27T16:43:13.394Z,4.30
2023-05-27T16:48:19.383Z,1.17
2023-05-27T16:53:25.907Z,1.37
2023-05-27T16:58:31.599Z,0.97
2023-05-27T17:03:37.201Z,1.17
2023-05-27T17:08:42.697Z,1.63
2023-05-27T17:13:49.266Z,8.47
2023-05-27T17:18:56.558Z,4.00
2023-05-27T17:24:02.033Z,4.57
2023-05-27T17:29:07.543Z,1.27
2023-05-27T17:34:16.483Z,2.20
2023-05-27T17:39:22.768Z,2.40
2023-05-27T17:44:32.495Z,2.37
2023-05-27T17:49:40.237Z,2.07
2023-05-27T17:54:46.195Z,2.40
2023-05-27T18:00:00.902Z,1.20
2023-05-27T18:05:06.500Z,3.07
2023-05-27T18:10:12.015Z,2.77
2023-05-27T18:15:18.143Z,5.93
2023-05-27T18:20:31.707Z,11.17
2023-05-27T18:25:38.812Z,6.57
2023-05-27T18:30:51.942Z,15.37
2023-05-27T18:35:58.464Z,15.87
2023-05-27T18:41:09.696Z,10.07
2023-05-27T18:46:27.726Z,4.43
2023-05-27T18:51:33.266Z,2.63
2023-05-27T18:56:38.558Z,18.53
2023-05-27T19:01:44.188Z,17.53
2023-05-27T19:06:49.782Z,10.87
2023-05-27T19:11:55.229Z,11.20
2023-05-27T19:17:00.803Z,9.60
2023-05-27T19:22:08.009Z,13.70
2023-05-27T19:27:16.238Z,11.40
2023-05-27T19:32:24.256Z,6.90
2023-05-27T19:37:36.987Z,6.20
2023-05-27T19:42:42.678Z,11.73
2023-05-27T19:47:48.070Z,13.03
2023-05-27T19:52:53.514Z,6.17
2023-05-27T19:58:00.190Z,7.17
2023-05-27T20:03:06.264Z,8.33
2023-05-27T20:08:12.101Z,11.67
2023-05-27T20:13:17.664Z,13.13
2023-05-27T20:18:27.760Z,13.03
2023-05-27T20:23:36.112Z,11.20
2023-05-27T20:28:41.608Z,9.10
2023-05-27T20:33:48.134Z,11.73
2023-05-27T20:38:55.028Z,12.77
2023-05-27T20:44:03.540Z,17.50
2023-05-27T20:49:08.869Z,9.40
2023-05-27T20:54:14.392Z,10.07
2023-05-27T20:59:19.615Z,9.73
2023-05-27T21:04:24.842Z,5.20
2023-05-27T21:09:30.228Z,11.70
2023-05-27T21:14:36.333Z,19.77
2023-05-27T21:19:43.051Z,11.30
2023-05-27T21:24:48.481Z,13.90
2023-05-27T21:29:55.215Z,15.93
2023-05-27T21:35:00.529Z,7.70
2023-05-27T21:40:07.006Z,13.53
2023-05-27T21:45:12.489Z,16.37
2023-05-27T21:50:22.315Z,12.20
2023-05-27T21:55:28.051Z,9.13
2023-05-27T22:00:33.632Z,15.17
2023-05-27T22:05:40.542Z,9.53
2023-05-27T22:10:46.837Z,9.83
2023-05-27T22:15:52.427Z,7.27
2023-05-27T22:20:58.204Z,9.50
2023-05-27T22:26:03.673Z,7.17
2023-05-27T22:31:08.969Z,15.63
2023-05-27T22:36:14.220Z,4.47
2023-05-27T22:41:19.607Z,11.10
2023-05-27T22:46:24.825Z,6.37
2023-05-27T22:51:30.178Z,3.83
2023-05-27T22:56:37.139Z,5.13
2023-05-27T23:01:42.331Z,5.10
2023-05-27T23:06:47.587Z,10.60
2023-05-27T23:11:52.970Z,6.20
2023-05-27T23:17:00.091Z,3.43
2023-05-27T23:22:08.944Z,4.30
2023-05-27T23:27:15.915Z,6.40
2023-05-27T23:32:22.829Z,4.47
2023-05-27T23:37:28.094Z,4.53
2023-05-27T23:42:33.408Z,5.67
2023-05-27T23:47:38.895Z,6.50
2023-05-27T23:52:45.320Z,4.57
2023-05-27T23:57:51.667Z,5.60
